Главная страница
METAR-TAF:

METAR-TAF

Аэропорты :

Сунан

Пхеньян, Северная Корея

широта: 39-02N, долгота: 125-47E, высота над уровнем моря: 36 м

METAR: отсутствует

Время: 23:46 (15:16 UTC)

Прогноз

Эта сводка был подготовлена 5 часа и 36 минут назад, в 09:40 UTC
Прогноз действительный с 24-го 12 UTC до 25-го 12 UTC
Ветер 12 Узел от западный
Видимость 10 км и более
Нет облачности ниже 1500 м, и нет кучево-дождевой облачности
изменения
С 25-го 02 UTC до 25-го 04 UTC
Рассеянная облачность на высоте 2300 фута

TAF: ZKPY 240940Z 2412/2512 26006MPS CAVOK TX14/2506Z TN01/2422Z BECMG 2502/2504 BKN023

Метеонаблюдения и прогнозы для более 4000 аэропортов (сводки METAR и TAF).

Имеющиеся станции представлены на карте желтыми и красными точками.

Чтобы увидеть название станции, наведите на нее мышь.

Затем щелкните, чтобы увидеть метеонаблюдения и метеопрогнозы.

Управление картой: чтобы увеличить масштаб, щелкните зеленые кнопки с черным крестиком; чтобы уменьшить масштаб, щелкните зеленую кнопку с тире; для просмотра соседних карт щелкайте зеленые стрелки.


METAR-TAF: